createdAt,value
2022-12-09T00:01:17.263Z,14.43
2022-12-09T00:03:47.155Z,14.93
2022-12-09T00:06:18.736Z,14.60
2022-12-09T00:08:47.162Z,11.18
2022-12-09T00:11:15.175Z,14.40
2022-12-09T00:13:43.222Z,15.50
2022-12-09T00:16:13.590Z,14.82
2022-12-09T00:18:42.346Z,14.93
2022-12-09T00:21:18.422Z,14.02
2022-12-09T00:23:46.881Z,15.30
2022-12-09T00:26:15.038Z,14.70
2022-12-09T00:28:43.132Z,15.38
2022-12-09T00:31:15.114Z,14.93
2022-12-09T00:33:43.438Z,14.13
2022-12-09T00:36:14.474Z,14.05
2022-12-09T00:38:44.578Z,13.68
2022-12-09T00:41:13.588Z,14.60
2022-12-09T00:43:41.749Z,14.18
2022-12-09T00:46:10.531Z,13.88
2022-12-09T00:48:38.746Z,13.65
2022-12-09T00:51:07.238Z,13.88
2022-12-09T00:53:35.293Z,13.43
2022-12-09T00:56:04.791Z,14.60
2022-12-09T00:58:32.768Z,15.05
2022-12-09T01:01:00.797Z,13.98
2022-12-09T01:03:28.762Z,13.07
2022-12-09T01:05:57.433Z,14.95
2022-12-09T01:08:25.537Z,14.35
2022-12-09T01:10:53.697Z,14.00
2022-12-09T01:13:22.934Z,14.25
2022-12-09T01:15:50.825Z,14.38
2022-12-09T01:18:18.733Z,14.50
2022-12-09T01:20:46.589Z,14.35
2022-12-09T01:23:14.468Z,15.60
2022-12-09T01:25:42.313Z,14.55
2022-12-09T01:28:10.439Z,15.30
2022-12-09T01:30:39.660Z,15.20
2022-12-09T01:33:07.645Z,13.73
2022-12-09T01:35:35.603Z,13.90
2022-12-09T01:38:03.502Z,14.50
2022-12-09T01:40:31.551Z,14.43
2022-12-09T01:42:59.400Z,13.70
2022-12-09T01:45:43.609Z,15.15
2022-12-09T01:48:14.227Z,13.75
2022-12-09T01:50:46.826Z,13.95
2022-12-09T01:53:17.388Z,13.25
2022-12-09T01:55:46.407Z,13.77
2022-12-09T01:58:16.110Z,13.65
2022-12-09T02:00:45.779Z,13.90
2022-12-09T02:03:13.862Z,14.52
2022-12-09T02:05:42.690Z,13.48
2022-12-09T02:08:13.888Z,13.93
2022-12-09T02:10:50.783Z,10.40
2022-12-09T02:13:26.349Z,14.70
2022-12-09T02:15:58.403Z,13.38
2022-12-09T02:18:32.920Z,14.77
2022-12-09T02:21:05.145Z,13.25
2022-12-09T02:26:17.508Z,12.43
2022-12-09T02:29:13.133Z,13.38
2022-12-09T02:32:08.895Z,12.50
2022-12-09T02:34:44.951Z,12.25
2022-12-09T02:37:20.131Z,12.88
2022-12-09T02:39:53.547Z,12.05
2022-12-09T02:42:25.313Z,11.80
2022-12-09T02:44:53.981Z,13.00
2022-12-09T02:47:26.033Z,11.93
2022-12-09T02:50:00.241Z,11.88
2022-12-09T02:52:29.737Z,11.43
2022-12-09T02:55:00.393Z,12.25
2022-12-09T02:57:30.845Z,12.15
2022-12-09T02:59:58.953Z,12.38
2022-12-09T03:02:32.473Z,11.93
2022-12-09T03:05:13.687Z,12.02
2022-12-09T03:07:47.081Z,12.50
2022-12-09T03:10:21.411Z,13.32
2022-12-09T03:12:56.296Z,12.63
2022-12-09T03:15:28.852Z,12.63
2022-12-09T03:17:59.739Z,13.07
2022-12-09T03:20:31.610Z,12.52
2022-12-09T03:23:05.703Z,12.55
2022-12-09T03:25:39.237Z,12.05
2022-12-09T03:28:10.487Z,11.90
2022-12-09T03:30:42.632Z,11.57
2022-12-09T03:33:12.859Z,12.60
2022-12-09T03:35:45.777Z,12.68
2022-12-09T03:38:17.864Z,11.82
2022-12-09T03:40:48.237Z,12.65
2022-12-09T03:43:24.578Z,11.98
2022-12-09T03:45:54.127Z,12.63
2022-12-09T03:48:23.425Z,13.98
2022-12-09T03:50:59.525Z,12.25
2022-12-09T03:53:34.197Z,13.52
2022-12-09T03:56:07.797Z,13.38
2022-12-09T03:58:39.288Z,12.93
2022-12-09T04:01:07.955Z,14.10
2022-12-09T04:03:36.214Z,13.68
2022-12-09T04:06:05.726Z,13.65
2022-12-09T04:08:33.835Z,13.88
2022-12-09T04:11:02.159Z,13.40
2022-12-09T04:13:30.059Z,13.45
2022-12-09T04:15:58.100Z,13.23
2022-12-09T04:18:26.384Z,13.57
2022-12-09T04:20:54.292Z,13.13
2022-12-09T04:23:23.478Z,13.07
2022-12-09T04:25:51.824Z,13.07
2022-12-09T04:28:19.735Z,12.85
2022-12-09T04:30:48.215Z,13.38
2022-12-09T04:33:16.500Z,12.55
2022-12-09T04:35:44.411Z,13.60
2022-12-09T04:38:12.259Z,12.35
2022-12-09T04:40:41.565Z,12.18
2022-12-09T04:43:09.499Z,11.48
2022-12-09T04:45:37.893Z,11.27
2022-12-09T04:48:06.099Z,10.98
2022-12-09T04:50:34.063Z,11.82
2022-12-09T04:53:01.878Z,10.65
2022-12-09T04:55:29.708Z,11.05
2022-12-09T04:57:58.889Z,10.75
2022-12-09T05:00:26.914Z,11.35
2022-12-09T05:02:54.904Z,11.00
2022-12-09T05:05:23.587Z,10.50
2022-12-09T05:07:51.657Z,9.70
2022-12-09T05:10:20.193Z,10.38
2022-12-09T05:12:48.162Z,10.27
2022-12-09T05:15:17.906Z,9.73
2022-12-09T05:17:46.164Z,10.50
2022-12-09T05:20:14.990Z,10.40
2022-12-09T05:22:43.608Z,9.90
2022-12-09T05:25:11.514Z,10.80
2022-12-09T05:27:40.040Z,11.00
2022-12-09T05:30:09.931Z,10.70
2022-12-09T05:32:39.503Z,11.07
2022-12-09T05:35:08.610Z,10.70
2022-12-09T05:37:36.825Z,9.93
2022-12-09T05:40:06.407Z,10.30
2022-12-09T05:42:40.920Z,11.93
2022-12-09T05:45:11.042Z,10.98
2022-12-09T05:47:40.961Z,10.73
2022-12-09T05:50:10.659Z,10.93
2022-12-09T05:52:39.822Z,10.80
2022-12-09T05:55:10.262Z,10.90
2022-12-09T05:57:38.660Z,11.43
2022-12-09T06:00:08.068Z,12.20
2022-12-09T06:02:36.644Z,14.73
2022-12-09T06:05:06.964Z,19.95
2022-12-09T06:07:35.806Z,28.33
2022-12-09T06:10:05.156Z,24.10
2022-12-09T06:12:33.953Z,20.95
2022-12-09T06:15:02.146Z,21.15
2022-12-09T06:17:30.235Z,17.88
2022-12-09T06:19:58.246Z,16.35
2022-12-09T06:22:27.535Z,14.32
2022-12-09T06:24:57.355Z,13.30
2022-12-09T06:27:25.349Z,14.27
2022-12-09T06:29:53.534Z,13.77
2022-12-09T06:32:21.745Z,14.55
2022-12-09T06:34:50.142Z,16.25
2022-12-09T06:37:18.924Z,18.30
2022-12-09T06:39:48.509Z,16.58
2022-12-09T06:42:16.722Z,17.42
2022-12-09T06:44:44.888Z,17.65
2022-12-09T06:47:13.223Z,17.27
2022-12-09T06:49:41.249Z,17.83
2022-12-09T06:52:09.226Z,17.40
2022-12-09T06:54:37.184Z,17.27
2022-12-09T06:57:06.775Z,18.25
2022-12-09T06:59:34.721Z,17.83
2022-12-09T07:02:02.879Z,18.15
2022-12-09T07:04:31.340Z,18.35
2022-12-09T07:06:59.746Z,18.80
2022-12-09T07:09:27.847Z,19.67
2022-12-09T07:11:55.889Z,19.98
2022-12-09T07:14:25.770Z,19.15
2022-12-09T07:16:53.731Z,19.60
2022-12-09T07:19:24.018Z,19.17
2022-12-09T07:21:52.721Z,20.55
2022-12-09T07:24:21.355Z,20.10
2022-12-09T07:26:50.137Z,19.23
2022-12-09T07:29:18.733Z,20.20
2022-12-09T07:31:48.776Z,20.85
2022-12-09T07:34:16.897Z,18.55
2022-12-09T07:36:44.876Z,20.33
2022-12-09T07:39:15.497Z,20.05
2022-12-09T07:41:44.056Z,20.67
2022-12-09T07:44:12.770Z,20.92
2022-12-09T07:46:41.273Z,20.63
2022-12-09T07:49:12.263Z,19.83
2022-12-09T07:51:40.893Z,19.98
2022-12-09T07:54:11.757Z,18.52
2022-12-09T07:56:39.698Z,19.20
2022-12-09T07:59:08.577Z,19.02
2022-12-09T08:01:37.839Z,18.90
2022-12-09T08:04:07.410Z,19.63
2022-12-09T08:06:38.033Z,20.00
2022-12-09T08:09:08.676Z,19.13
2022-12-09T08:11:37.591Z,19.55
2022-12-09T08:14:11.413Z,19.92
2022-12-09T08:16:41.886Z,19.10
2022-12-09T08:19:10.746Z,19.27
2022-12-09T08:21:41.108Z,19.73
2022-12-09T08:24:11.813Z,19.33
2022-12-09T08:26:40.412Z,20.08
2022-12-09T08:29:10.374Z,19.75
2022-12-09T08:31:41.857Z,20.20
2022-12-09T08:34:11.106Z,19.10
2022-12-09T08:36:40.877Z,20.80
2022-12-09T08:39:09.309Z,18.15
2022-12-09T08:41:39.450Z,20.23
2022-12-09T08:44:10.428Z,19.98
2022-12-09T08:46:40.117Z,19.10
2022-12-09T08:49:09.390Z,21.08
2022-12-09T08:51:38.470Z,20.50
2022-12-09T08:54:08.427Z,20.05
2022-12-09T08:56:36.835Z,20.25
2022-12-09T08:59:05.004Z,19.65
2022-12-09T09:01:35.595Z,18.83
2022-12-09T09:04:06.849Z,19.42
2022-12-09T09:06:36.335Z,19.73
2022-12-09T09:09:05.714Z,20.40
2022-12-09T09:11:35.931Z,20.65
2022-12-09T09:14:05.956Z,19.08
2022-12-09T09:16:34.654Z,20.73
2022-12-09T09:19:05.745Z,20.50
2022-12-09T09:21:34.582Z,20.77
2022-12-09T09:24:03.185Z,21.52
2022-12-09T09:26:31.220Z,21.73
2022-12-09T09:29:00.991Z,20.02
2022-12-09T09:31:29.073Z,20.75
2022-12-09T09:33:57.239Z,21.17
2022-12-09T09:36:25.983Z,22.40
2022-12-09T09:38:56.101Z,21.15
2022-12-09T09:41:33.375Z,20.92
2022-12-09T09:44:03.794Z,21.45
2022-12-09T09:46:40.779Z,21.00
2022-12-09T09:49:14.546Z,20.88
2022-12-09T09:51:42.736Z,21.90
2022-12-09T09:54:13.388Z,20.60
2022-12-09T09:56:48.537Z,21.20
2022-12-09T09:59:27.857Z,21.02
2022-12-09T10:02:09.648Z,21.00
2022-12-09T10:04:48.785Z,20.05
2022-12-09T10:07:22.864Z,20.77
2022-12-09T10:09:58.961Z,20.90
2022-12-09T10:12:33.782Z,20.20
2022-12-09T10:15:11.501Z,20.40
2022-12-09T10:17:46.956Z,19.60
2022-12-09T10:20:17.438Z,20.17
2022-12-09T10:22:49.687Z,19.88
2022-12-09T10:25:21.351Z,20.30
2022-12-09T10:27:54.737Z,19.90
2022-12-09T10:30:25.057Z,18.77
2022-12-09T10:32:55.507Z,19.65
2022-12-09T10:35:25.969Z,18.73
2022-12-09T10:37:56.406Z,19.95
2022-12-09T10:40:30.982Z,18.95
2022-12-09T10:43:18.423Z,17.73
2022-12-09T10:46:17.273Z,18.52
2022-12-09T10:48:44.819Z,19.52
2022-12-09T10:51:17.688Z,17.10
2022-12-09T10:53:48.686Z,17.90
2022-12-09T10:56:20.982Z,17.38
2022-12-09T11:01:19.419Z,17.23
2022-12-09T11:03:50.749Z,17.63
2022-12-09T11:06:25.239Z,17.80
2022-12-09T11:08:56.887Z,18.88
2022-12-09T11:11:44.627Z,17.70
2022-12-09T11:14:23.040Z,18.23
2022-12-09T11:16:54.493Z,16.60
2022-12-09T11:19:34.120Z,17.38
2022-12-09T11:22:22.263Z,16.70
2022-12-09T11:24:50.657Z,15.88
2022-12-09T11:27:31.106Z,16.65
2022-12-09T11:30:13.065Z,16.40
2022-12-09T11:32:56.869Z,16.95
2022-12-09T11:35:31.276Z,16.75
2022-12-09T11:38:01.680Z,15.65
2022-12-09T11:40:30.582Z,16.30
2022-12-09T11:42:58.803Z,16.25
2022-12-09T11:45:30.902Z,16.35
2022-12-09T11:48:32.838Z,15.93
2022-12-09T11:50:58.105Z,16.63
2022-12-09T11:53:29.443Z,17.27
2022-12-09T11:56:03.975Z,17.73
2022-12-09T11:58:39.964Z,16.63
2022-12-09T12:01:12.656Z,18.50
2022-12-09T12:03:47.232Z,16.85
2022-12-09T12:06:21.175Z,16.85
2022-12-09T12:08:52.501Z,17.77
2022-12-09T12:11:28.775Z,16.23
2022-12-09T12:14:04.539Z,18.20
2022-12-09T12:16:39.947Z,18.52
2022-12-09T12:19:16.334Z,18.80
2022-12-09T12:22:13.098Z,19.08
2022-12-09T12:25:03.445Z,20.55
2022-12-09T12:27:42.511Z,20.77
2022-12-09T12:30:14.172Z,19.80
2022-12-09T12:33:40.844Z,19.77
2022-12-09T12:35:58.299Z,19.83
2022-12-09T12:38:39.797Z,19.77
2022-12-09T12:41:14.874Z,21.63
2022-12-09T12:44:15.542Z,19.08
2022-12-09T12:46:54.364Z,19.67
2022-12-09T12:49:48.230Z,19.50
2022-12-09T12:55:28.585Z,20.52
2022-12-09T12:58:06.396Z,19.88
2022-12-09T13:00:40.028Z,20.83
2022-12-09T13:03:20.821Z,19.85
2022-12-09T13:05:52.405Z,19.27
2022-12-09T13:08:29.037Z,20.40
2022-12-09T13:10:58.983Z,20.15
2022-12-09T13:13:30.341Z,20.20
2022-12-09T13:16:03.003Z,19.60
2022-12-09T13:18:35.823Z,19.83
2022-12-09T13:21:06.179Z,18.50
2022-12-09T13:23:48.774Z,19.17
2022-12-09T13:26:27.868Z,18.98
2022-12-09T13:29:01.404Z,19.00
2022-12-09T13:31:31.742Z,20.77
2022-12-09T13:34:15.183Z,20.35
2022-12-09T13:36:45.584Z,20.92
2022-12-09T13:39:53.627Z,20.30
2022-12-09T13:42:54.194Z,18.52
2022-12-09T13:45:27.805Z,19.52
2022-12-09T13:47:56.621Z,19.05
2022-12-09T13:50:28.454Z,19.95
2022-12-09T13:53:00.069Z,20.95
2022-12-09T13:55:36.922Z,15.43
2022-12-09T13:58:21.835Z,21.73
2022-12-09T14:01:04.835Z,21.58
2022-12-09T14:03:35.805Z,20.77
2022-12-09T14:06:17.310Z,21.60
2022-12-09T14:08:49.968Z,19.63
2022-12-09T14:11:49.870Z,20.13
2022-12-09T14:14:58.878Z,20.25
2022-12-09T14:18:01.843Z,20.40
2022-12-09T14:20:32.925Z,20.77
2022-12-09T14:23:11.774Z,20.55
2022-12-09T14:25:55.957Z,20.15
2022-12-09T14:28:59.427Z,20.33
2022-12-09T14:31:49.458Z,19.58
2022-12-09T14:34:39.100Z,19.48
2022-12-09T14:37:30.879Z,20.20
2022-12-09T14:40:16.357Z,19.75
2022-12-09T14:42:50.591Z,20.08
2022-12-09T14:45:28.285Z,19.15
2022-12-09T14:47:57.573Z,18.88
2022-12-09T14:50:29.491Z,19.92
2022-12-09T14:53:00.389Z,20.80
2022-12-09T14:55:30.124Z,23.55
2022-12-09T14:58:00.992Z,23.73
2022-12-09T15:00:35.483Z,22.15
2022-12-09T15:03:32.291Z,21.00
2022-12-09T15:05:57.321Z,20.30
2022-12-09T15:08:30.055Z,19.98
2022-12-09T15:10:58.426Z,20.67
2022-12-09T15:13:27.111Z,20.00
2022-12-09T15:15:55.625Z,19.95
2022-12-09T15:18:26.282Z,19.30
2022-12-09T15:20:56.858Z,18.38
2022-12-09T15:23:30.668Z,19.70
2022-12-09T15:26:00.702Z,19.73
2022-12-09T15:28:31.178Z,19.77
2022-12-09T15:31:01.898Z,18.95
2022-12-09T15:33:33.275Z,18.95
2022-12-09T15:36:04.349Z,19.88
2022-12-09T15:38:40.694Z,20.52
2022-12-09T15:41:28.142Z,19.95
2022-12-09T15:44:01.852Z,18.35
2022-12-09T15:46:33.607Z,20.58
2022-12-09T15:49:04.157Z,19.27
2022-12-09T15:51:33.492Z,19.67
2022-12-09T15:54:05.095Z,20.15
2022-12-09T15:56:36.285Z,19.45
2022-12-09T15:59:12.268Z,21.00
2022-12-09T16:01:42.016Z,22.33
2022-12-09T16:04:11.542Z,22.80
2022-12-09T16:06:39.404Z,22.70
2022-12-09T16:09:13.694Z,22.63
2022-12-09T16:11:43.604Z,22.30
2022-12-09T16:14:12.435Z,22.42
2022-12-09T16:16:47.826Z,21.13
2022-12-09T16:19:28.086Z,22.50
2022-12-09T16:21:59.426Z,21.35
2022-12-09T16:24:50.799Z,21.50
2022-12-09T16:27:20.296Z,20.98
2022-12-09T16:29:51.251Z,22.52
2022-12-09T16:32:23.120Z,23.15
2022-12-09T16:34:54.609Z,23.15
2022-12-09T16:37:30.119Z,24.50
2022-12-09T16:39:58.756Z,23.83
2022-12-09T16:42:35.213Z,23.00
2022-12-09T16:45:34.851Z,22.08
2022-12-09T16:48:02.930Z,22.95
2022-12-09T16:50:35.613Z,22.42
2022-12-09T16:53:05.445Z,22.38
2022-12-09T16:55:33.739Z,21.80
2022-12-09T16:58:01.616Z,20.75
2022-12-09T17:00:29.473Z,22.90
2022-12-09T17:03:01.460Z,22.75
2022-12-09T17:05:29.451Z,23.00
2022-12-09T17:07:58.985Z,22.27
2022-12-09T17:10:26.845Z,22.67
2022-12-09T17:12:54.873Z,22.08
2022-12-09T17:15:22.944Z,22.80
2022-12-09T17:17:50.820Z,22.42
2022-12-09T17:20:18.767Z,22.05
2022-12-09T17:22:46.745Z,22.02
2022-12-09T17:25:15.970Z,22.48
2022-12-09T17:27:43.830Z,22.70
2022-12-09T17:30:12.821Z,23.60
2022-12-09T17:32:40.658Z,22.25
2022-12-09T17:35:12.641Z,22.67
2022-12-09T17:40:09.501Z,22.08
2022-12-09T17:42:38.862Z,21.50
2022-12-09T17:45:07.820Z,23.25
2022-12-09T17:47:35.835Z,22.08
2022-12-09T17:50:03.666Z,23.58
2022-12-09T17:52:31.557Z,21.75
2022-12-09T17:54:59.391Z,22.63
2022-12-09T17:57:27.200Z,23.13
2022-12-09T17:59:56.481Z,23.40
2022-12-09T18:02:24.387Z,21.77
2022-12-09T18:04:52.303Z,22.45
2022-12-09T18:07:20.304Z,22.35
2022-12-09T18:09:54.188Z,23.58
2022-12-09T18:12:22.804Z,21.65
2022-12-09T18:14:50.680Z,21.80
2022-12-09T18:17:19.852Z,22.23
2022-12-09T18:19:47.690Z,23.27
2022-12-09T18:22:15.492Z,22.27
2022-12-09T18:24:43.306Z,22.55
2022-12-09T18:27:11.111Z,22.13
2022-12-09T18:29:41.433Z,23.08
2022-12-09T18:32:09.748Z,24.10
2022-12-09T18:34:38.925Z,22.50
2022-12-09T18:37:06.757Z,24.00
2022-12-09T18:39:34.563Z,24.33
2022-12-09T18:42:03.223Z,23.02
2022-12-09T18:44:31.063Z,22.38
2022-12-09T18:46:59.555Z,21.92
2022-12-09T18:49:28.424Z,22.50
2022-12-09T18:51:57.584Z,22.02
2022-12-09T18:54:27.645Z,21.42
2022-12-09T18:56:56.202Z,22.25
2022-12-09T18:59:25.327Z,21.63
2022-12-09T19:01:53.848Z,22.80
2022-12-09T19:04:24.276Z,22.30
2022-12-09T19:06:54.007Z,21.88
2022-12-09T19:09:25.772Z,21.00
2022-12-09T19:11:53.944Z,22.95
2022-12-09T19:14:23.469Z,22.90
2022-12-09T19:16:51.879Z,23.15
2022-12-09T19:19:22.759Z,22.42
2022-12-09T19:21:51.095Z,22.88
2022-12-09T19:24:22.855Z,21.88
2022-12-09T19:26:53.770Z,21.33
2022-12-09T19:29:24.495Z,23.42
2022-12-09T19:31:53.708Z,21.95
2022-12-09T19:34:23.061Z,22.30
2022-12-09T19:36:53.175Z,22.73
2022-12-09T19:39:23.431Z,20.95
2022-12-09T19:41:53.009Z,21.83
2022-12-09T19:44:44.549Z,22.15
2022-12-09T19:47:10.437Z,21.10
2022-12-09T19:49:40.843Z,21.55
2022-12-09T19:52:08.774Z,21.42
2022-12-09T19:54:36.938Z,23.50
2022-12-09T19:57:06.492Z,22.52
2022-12-09T19:59:35.435Z,24.45
2022-12-09T20:02:03.294Z,22.77
2022-12-09T20:04:48.864Z,23.65
2022-12-09T20:07:17.964Z,23.45
2022-12-09T20:09:45.834Z,24.70
2022-12-09T20:12:15.492Z,23.60
2022-12-09T20:14:43.877Z,25.02
2022-12-09T20:17:11.888Z,26.23
2022-12-09T20:19:40.049Z,23.65
2022-12-09T20:22:07.888Z,25.92
2022-12-09T20:24:35.785Z,25.52
2022-12-09T20:27:03.623Z,25.25
2022-12-09T20:29:37.508Z,25.13
2022-12-09T20:32:06.399Z,26.90
2022-12-09T20:34:34.280Z,23.58
2022-12-09T20:37:02.176Z,25.38
2022-12-09T20:39:30.016Z,26.35
2022-12-09T20:41:59.196Z,25.70
2022-12-09T20:44:27.064Z,26.25
2022-12-09T20:46:56.890Z,25.90
2022-12-09T20:49:26.542Z,25.48
2022-12-09T20:51:55.610Z,25.20
2022-12-09T20:54:23.833Z,25.15
2022-12-09T20:56:52.959Z,24.50
2022-12-09T20:59:20.794Z,24.17
2022-12-09T21:01:48.647Z,24.38
2022-12-09T21:04:18.074Z,23.02
2022-12-09T21:06:45.980Z,23.63
2022-12-09T21:09:18.477Z,23.92
2022-12-09T21:11:47.065Z,24.75
2022-12-09T21:14:18.019Z,24.73
2022-12-09T21:16:47.855Z,24.83
2022-12-09T21:19:20.090Z,25.63
2022-12-09T21:21:48.472Z,24.83
2022-12-09T21:24:16.794Z,25.17
2022-12-09T21:26:46.280Z,24.90
2022-12-09T21:29:14.975Z,24.40
2022-12-09T21:31:44.127Z,24.17
2022-12-09T21:34:12.359Z,25.17
2022-12-09T21:36:43.443Z,25.13
2022-12-09T21:39:12.981Z,23.27
2022-12-09T21:41:41.661Z,24.60
2022-12-09T21:44:10.986Z,23.95
2022-12-09T21:46:39.736Z,24.70
2022-12-09T21:49:07.838Z,23.10
2022-12-09T21:51:36.187Z,24.50
2022-12-09T21:54:05.645Z,23.65
2022-12-09T21:56:36.758Z,24.77
2022-12-09T21:59:06.367Z,24.55
2022-12-09T22:01:36.473Z,24.58
2022-12-09T22:04:06.738Z,23.65
2022-12-09T22:06:35.096Z,24.13
2022-12-09T22:09:06.515Z,25.20
2022-12-09T22:11:36.091Z,18.67
2022-12-09T22:14:05.200Z,24.60
2022-12-09T22:16:36.945Z,23.98
2022-12-09T22:19:08.063Z,27.05
2022-12-09T22:21:36.754Z,25.65
2022-12-09T22:24:08.016Z,25.73
2022-12-09T22:26:36.187Z,26.55
2022-12-09T22:29:06.646Z,24.15
2022-12-09T22:31:36.276Z,25.33
2022-12-09T22:34:07.438Z,25.00
2022-12-09T22:36:36.940Z,24.77
2022-12-09T22:39:07.687Z,25.50
2022-12-09T22:41:36.164Z,26.30
2022-12-09T22:44:04.903Z,24.55
2022-12-09T22:46:34.756Z,24.20
2022-12-09T22:49:04.650Z,24.23
2022-12-09T22:51:34.938Z,24.70
2022-12-09T22:54:04.905Z,23.98
2022-12-09T22:56:34.417Z,24.42
2022-12-09T22:59:02.347Z,23.50
2022-12-09T23:01:32.799Z,24.40
2022-12-09T23:04:01.342Z,23.50
2022-12-09T23:06:30.826Z,25.23
2022-12-09T23:08:59.373Z,22.35
2022-12-09T23:11:29.418Z,23.52
2022-12-09T23:14:00.159Z,23.88
2022-12-09T23:16:28.480Z,23.38
2022-12-09T23:18:58.033Z,23.58
2022-12-09T23:21:27.444Z,25.77
2022-12-09T23:23:56.540Z,25.95
2022-12-09T23:26:26.614Z,24.83
2022-12-09T23:28:56.275Z,24.52
2022-12-09T23:31:28.626Z,23.92
2022-12-09T23:33:57.381Z,24.70
2022-12-09T23:36:27.443Z,24.67
2022-12-09T23:38:55.610Z,24.45
2022-12-09T23:41:24.911Z,24.77
2022-12-09T23:43:53.446Z,23.98
2022-12-09T23:46:23.480Z,25.65
2022-12-09T23:48:53.716Z,25.13
2022-12-09T23:51:23.436Z,25.52
2022-12-09T23:53:53.168Z,25.30
2022-12-09T23:56:23.209Z,25.45
2022-12-09T23:58:55.072Z,25.55
